Wednesday, November 22, 2017, 12:59 PM GMT
Back to Local

CWIG, Ile Aux Grues, Que.

Location: , , Canada Lat: 47.067
Local Time: 12:59 PM GMT (12:59 GMT) Lon: -70.533
Time Zone: GMT Elev: 59 ft

Show me the last for .
Show Coded

Time T Td Feel RH Dir Speed Gust Alt SLP Vis Weather Sky Remarks
2017-11-22 12:00 - - - 0 10° 2 - - - 0 None
2017-11-22 11:00 - - - 0 350° 2 - - - 0 None
2017-11-22 10:00 - - - 0 230° 1 - - - 0 None
2017-11-22 09:00 - - - 0 150° 6 - - - 0 None
2017-11-22 08:00 - - - 0 150° 3 - - - 0 None
2017-11-22 07:00 - - - 0 170° 3 - - - 0 None
2017-11-22 06:00 - - - 0 170° 5 - - - 0 None
2017-11-22 05:00 - - - 0 190° 6 - - - 0 None
2017-11-22 04:00 - - - 0 170° 2 - - - 0 None
2017-11-22 03:00 - - - 0 150° 5 - - - 0 None
2017-11-22 02:00 - - - 0 60° 1 - - - 0 None
2017-11-22 01:00 - - - 0 40° 3 - - - 0 None
2017-11-22 00:00 - - - 0 10° 3 - - - 0 None
2017-11-21 23:00 - - - 0 50° 3 - - - 0 None
2017-11-21 22:00 - - - 0 360° 5 - - - 0 None
2017-11-21 21:00 - - - 0 30° 3 - - - 0 None
2017-11-21 20:00 - - - 0 30° 1 - - - 0 None
2017-11-21 19:00 - - - 0 70° 3 - - - 0 None
2017-11-21 18:00 - - - 0 100° 6 - - - 0 None
2017-11-21 17:00 - - - 0 310° 2 - - - 0 None
2017-11-21 16:00 - - - 0 320° 6 - - - 0 None
2017-11-21 15:00 - - - 0 90° 2 - - - 0 None
2017-11-21 14:00 - - - 0 250° 2 - - - 0 None
2017-11-21 13:00 - - - 0 190° 7 - - - 0 None

Support USWX by starting your Amazon purchase here.